createdAt,value
2017-05-08T16:59:21.144Z,9.62
2017-05-08T17:00:21.147Z,9.56
2017-05-08T17:01:21.176Z,9.56
2017-05-08T17:02:21.183Z,9.53
2017-05-08T17:03:21.230Z,9.53
2017-05-08T17:04:21.255Z,9.5
2017-05-08T17:05:21.273Z,9.48
2017-05-08T17:06:21.264Z,9.47
2017-05-08T17:07:21.291Z,9.48
2017-05-08T17:08:21.314Z,9.6
2017-05-08T17:09:21.379Z,9.59
2017-05-08T17:10:21.374Z,9.8
2017-05-08T17:11:21.407Z,9.84
2017-05-08T17:12:21.429Z,9.88
2017-05-08T17:13:21.471Z,9.9
2017-05-08T17:14:21.459Z,9.89
2017-05-08T17:15:21.534Z,9.84
2017-05-08T17:16:21.562Z,9.88
2017-05-08T17:17:21.548Z,9.88
2017-05-08T17:18:21.585Z,9.81
2017-05-08T17:19:21.591Z,9.75
2017-05-08T17:20:21.664Z,9.72
2017-05-08T17:21:21.656Z,9.75
2017-05-08T17:22:21.693Z,9.62
2017-05-08T17:23:21.738Z,9.7
2017-05-08T17:24:21.752Z,9.6
2017-05-08T17:25:21.782Z,9.64
2017-05-08T17:26:21.812Z,9.56
2017-05-08T17:27:21.848Z,9.55
2017-05-08T17:28:21.879Z,9.44
2017-05-08T17:29:21.932Z,9.48
2017-05-08T17:30:21.921Z,9.5
2017-05-08T17:31:21.973Z,9.55
2017-05-08T17:32:21.981Z,9.5
2017-05-08T17:33:22.042Z,9.53
2017-05-08T17:34:22.170Z,9.5
2017-05-08T17:35:22.124Z,9.5
2017-05-08T17:36:22.099Z,9.5
2017-05-08T17:37:22.161Z,9.45
2017-05-08T17:38:22.151Z,9.38
2017-05-08T17:39:22.342Z,9.38
2017-05-08T17:40:22.246Z,9.37
2017-05-08T17:41:22.274Z,9.27
2017-05-08T17:42:22.287Z,9.32
2017-05-08T17:43:22.346Z,9.23
2017-05-08T17:44:22.369Z,9.17
2017-05-08T17:45:22.384Z,9.16
2017-05-08T17:46:22.406Z,9.08
2017-05-08T17:47:22.438Z,9.03
2017-05-08T17:48:22.486Z,8.87
2017-05-08T17:49:22.492Z,8.77
2017-05-08T17:50:22.516Z,8.65
2017-05-08T17:51:22.562Z,8.47
2017-05-08T17:52:22.563Z,8.5
2017-05-08T17:53:22.597Z,8.39
2017-05-08T17:54:22.675Z,8.28
2017-05-08T17:55:22.663Z,8.21
2017-05-08T17:56:22.693Z,8.19
2017-05-08T17:57:22.718Z,8.17
2017-05-08T17:58:22.760Z,8.13
2017-05-08T17:59:22.785Z,8.1
2017-05-08T18:00:22.820Z,8.03
2017-05-08T18:01:22.853Z,7.96
2017-05-08T18:02:22.866Z,7.96
2017-05-08T18:03:22.908Z,8.03
2017-05-08T18:04:22.978Z,7.96
2017-05-08T18:05:22.966Z,7.92
2017-05-08T18:06:22.988Z,7.85
2017-05-08T18:07:23.035Z,7.82
2017-05-08T18:08:23.102Z,7.83
2017-05-08T18:09:23.080Z,7.85
2017-05-08T18:10:23.107Z,7.85
2017-05-08T18:11:23.172Z,7.91
2017-05-08T18:12:23.181Z,7.82
2017-05-08T18:13:23.227Z,7.88
2017-05-08T18:14:23.273Z,7.98
2017-05-08T18:15:23.266Z,8.01
2017-05-08T18:16:23.293Z,7.98
2017-05-08T18:17:23.334Z,8.1
2017-05-08T18:18:23.363Z,8.04
2017-05-08T18:19:23.390Z,8.16
2017-05-08T18:20:23.408Z,8.11
2017-05-08T18:21:23.480Z,8.16
2017-05-08T18:22:23.488Z,8.19
2017-05-08T18:23:23.504Z,8.16
2017-05-08T18:24:23.525Z,8.26
2017-05-08T18:25:23.580Z,8.19
2017-05-08T18:26:23.582Z,8.25
2017-05-08T18:27:23.656Z,8.22
2017-05-08T18:28:23.664Z,8.17
2017-05-08T18:29:23.671Z,8.19
2017-05-08T18:30:23.756Z,8.32
2017-05-08T18:31:23.734Z,8.21
2017-05-08T18:32:23.778Z,8.16
2017-05-08T18:33:23.807Z,8.25
2017-05-08T18:34:23.829Z,8.16
2017-05-08T18:35:23.891Z,8.13
2017-05-08T18:36:23.908Z,7.98
2017-05-08T18:37:23.914Z,8.01
2017-05-08T18:38:24.006Z,7.93
2017-05-08T18:39:23.979Z,7.86
2017-05-08T18:40:24.014Z,7.73
2017-05-08T18:41:24.041Z,7.73
2017-05-08T18:42:24.083Z,7.59
2017-05-08T18:43:24.312Z,7.63
2017-05-08T18:44:24.130Z,7.63
2017-05-08T18:45:24.269Z,7.68
2017-05-08T18:46:24.179Z,7.56
2017-05-08T18:47:24.217Z,7.64
2017-05-08T18:48:24.279Z,7.64
2017-05-08T18:49:24.289Z,7.68
2017-05-08T18:50:24.393Z,7.54
2017-05-08T18:51:24.309Z,7.52
2017-05-08T18:52:24.587Z,7.49
2017-05-08T18:53:24.409Z,7.45
2017-05-08T18:54:24.406Z,7.45
2017-05-08T18:55:24.441Z,7.44
2017-05-08T18:56:24.495Z,7.45
2017-05-08T18:57:24.502Z,7.39
2017-05-08T18:58:24.540Z,7.48
2017-05-08T18:59:24.559Z,7.39
2017-05-08T19:00:24.592Z,7.39
2017-05-08T19:01:24.631Z,7.39
2017-05-08T19:02:24.627Z,7.44
2017-05-08T19:03:24.706Z,7.41
2017-05-08T19:04:24.729Z,7.4
2017-05-08T19:05:24.833Z,7.41
2017-05-08T19:06:24.746Z,7.39
2017-05-08T19:07:24.818Z,7.39
2017-05-08T19:08:25.024Z,7.33
2017-05-08T19:09:25.077Z,7.4
2017-05-08T19:10:24.928Z,7.37
2017-05-08T19:11:24.912Z,7.34
2017-05-08T19:12:24.941Z,7.39
2017-05-08T19:13:24.993Z,7.37
2017-05-08T19:14:24.988Z,7.36
2017-05-08T19:15:25.028Z,7.4
2017-05-08T19:16:25.082Z,7.34
2017-05-08T19:17:25.316Z,7.33
2017-05-08T19:18:25.098Z,7.3
2017-05-08T19:19:25.169Z,7.27
2017-05-08T19:20:25.225Z,7.29
2017-05-08T19:21:25.231Z,7.34
2017-05-08T19:22:25.219Z,7.29
2017-05-08T19:23:25.275Z,7.26
2017-05-08T19:24:25.316Z,7.27
2017-05-08T19:25:25.313Z,7.21
2017-05-08T19:26:25.345Z,7.22
2017-05-08T19:27:25.407Z,7.23
2017-05-08T19:28:25.404Z,7.27
2017-05-08T19:29:25.434Z,7.26
2017-05-08T19:30:25.480Z,7.29
2017-05-08T19:31:25.523Z,7.21
2017-05-08T19:32:25.532Z,7.19
2017-05-08T19:33:25.560Z,7.31
2017-05-08T19:34:25.611Z,7.33
2017-05-08T19:35:25.638Z,7.26
2017-05-08T19:36:25.635Z,7.31
2017-05-08T19:37:25.739Z,7.31
2017-05-08T19:38:26.068Z,7.31
2017-05-08T19:39:25.720Z,7.31
2017-05-08T19:40:25.943Z,7.36
2017-05-08T19:41:25.828Z,7.34
2017-05-08T19:42:25.814Z,7.36
2017-05-08T19:43:25.917Z,7.31
2017-05-08T19:44:25.881Z,7.36
2017-05-08T19:45:25.903Z,7.27
2017-05-08T19:46:25.923Z,7.31
2017-05-08T19:47:25.956Z,7.33
2017-05-08T19:48:26.000Z,7.33
2017-05-08T19:49:26.015Z,7.37
2017-05-08T19:50:26.058Z,7.37
2017-05-08T19:51:26.074Z,7.33
2017-05-08T19:52:26.118Z,7.29
2017-05-08T19:53:26.135Z,7.27
2017-05-08T19:54:26.157Z,7.33
2017-05-08T19:55:26.180Z,7.39
2017-05-08T19:56:26.221Z,7.33
2017-05-08T19:57:26.258Z,7.31
2017-05-08T19:58:26.274Z,7.19
2017-05-08T19:59:26.313Z,7.22
2017-05-08T20:00:26.537Z,7.18
2017-05-08T20:01:26.389Z,7.23
2017-05-08T20:02:26.414Z,7.16
2017-05-08T20:03:26.433Z,7.22
2017-05-08T20:04:26.457Z,7.18
2017-05-08T20:05:26.521Z,7.16
2017-05-08T20:06:26.573Z,7.18
2017-05-08T20:07:26.568Z,7.13
2017-05-08T20:08:26.783Z,7.13
2017-05-08T20:09:26.871Z,7.16
2017-05-08T20:10:26.625Z,7.19
2017-05-08T20:11:26.925Z,7.21
2017-05-08T20:12:26.675Z,7.19
2017-05-08T20:13:26.746Z,7.13
2017-05-08T20:14:26.778Z,7.08
2017-05-08T20:15:26.782Z,7.08
2017-05-08T20:16:26.788Z,7.01
2017-05-08T20:17:26.832Z,7.03
2017-05-08T20:18:26.864Z,7.01
2017-05-08T20:19:27.548Z,6.95
2017-05-08T20:20:26.960Z,7.04
2017-05-08T20:21:26.940Z,6.95
2017-05-08T20:22:26.965Z,6.94
2017-05-08T20:23:26.994Z,7
2017-05-08T20:24:27.057Z,7.03
2017-05-08T20:25:27.068Z,6.85
2017-05-08T20:26:27.098Z,6.88
2017-05-08T20:27:27.139Z,6.86
2017-05-08T20:28:27.146Z,6.86
2017-05-08T20:29:27.223Z,6.83
2017-05-08T20:30:27.216Z,6.86
2017-05-08T20:31:27.264Z,6.9
2017-05-08T20:32:27.289Z,6.93
2017-05-08T20:33:27.350Z,6.88
2017-05-08T20:34:27.328Z,6.8
2017-05-08T20:35:27.340Z,6.85
2017-05-08T20:36:27.402Z,6.76
2017-05-08T20:37:27.439Z,6.83
2017-05-08T20:38:27.432Z,6.8
2017-05-08T20:39:27.472Z,6.79
2017-05-08T20:40:27.692Z,6.72
2017-05-08T20:41:27.546Z,6.82
2017-05-08T20:42:27.542Z,6.67
2017-05-08T20:43:27.587Z,6.78
2017-05-08T20:44:27.617Z,6.72
2017-05-08T20:45:27.847Z,6.73
2017-05-08T20:46:27.659Z,6.68
2017-05-08T20:47:27.688Z,6.62
2017-05-08T20:48:27.763Z,6.68
2017-05-08T20:49:27.781Z,6.64
2017-05-08T20:50:27.805Z,6.7
2017-05-08T20:51:27.822Z,6.55
2017-05-08T20:52:27.831Z,6.65
2017-05-08T20:53:27.865Z,6.58
2017-05-08T20:54:27.877Z,6.61
2017-05-08T20:55:27.921Z,6.62
2017-05-08T20:56:27.937Z,6.68
2017-05-08T20:57:27.983Z,6.62
2017-05-08T20:58:28.040Z,6.6
2017-05-08T20:59:28.038Z,6.65
2017-05-08T21:00:28.060Z,6.62
2017-05-08T21:01:28.094Z,6.58
2017-05-08T21:02:28.144Z,6.57
2017-05-08T21:03:28.547Z,6.6
2017-05-08T21:04:28.241Z,6.65
2017-05-08T21:05:28.298Z,6.64
2017-05-08T21:06:28.230Z,6.58
2017-05-08T21:07:28.261Z,6.61
2017-05-08T21:08:28.323Z,6.61
2017-05-08T21:09:28.338Z,6.68
2017-05-08T21:10:28.406Z,6.68
2017-05-08T21:11:28.375Z,6.6
2017-05-08T21:12:28.461Z,6.6
2017-05-08T21:13:28.457Z,6.58
2017-05-08T21:14:28.460Z,6.6
2017-05-08T21:15:28.481Z,6.58
2017-05-08T21:16:28.563Z,6.61
2017-05-08T21:17:28.557Z,6.57
2017-05-08T21:18:28.595Z,6.61
2017-05-08T21:19:28.633Z,6.67
2017-05-08T21:20:28.649Z,6.57
2017-05-08T21:21:28.663Z,6.55
2017-05-08T21:22:28.698Z,6.61
2017-05-08T21:23:28.947Z,6.57
2017-05-08T21:24:28.772Z,6.58
2017-05-08T21:25:28.759Z,6.51
2017-05-08T21:26:28.822Z,6.58
2017-05-08T21:27:28.859Z,6.52
2017-05-08T21:28:28.878Z,6.43
2017-05-08T21:29:28.925Z,6.44
2017-05-08T21:30:29.161Z,6.39
2017-05-08T21:31:28.968Z,6.26
2017-05-08T21:32:29.002Z,6.18
2017-05-08T21:33:29.004Z,6.06
2017-05-08T21:34:29.024Z,6
2017-05-08T21:35:29.049Z,5.82
2017-05-08T21:36:29.142Z,5.81
2017-05-08T21:37:29.116Z,5.77
2017-05-08T21:38:29.185Z,5.62
2017-05-08T21:39:29.185Z,5.66
2017-05-08T21:40:29.217Z,5.57
2017-05-08T21:41:29.281Z,5.54
2017-05-08T21:42:29.325Z,5.45
2017-05-08T21:43:29.289Z,5.45
2017-05-08T21:44:29.306Z,5.42
2017-05-08T21:45:29.647Z,5.37
2017-05-08T21:46:29.371Z,5.27
2017-05-08T21:47:29.422Z,5.36
2017-05-08T21:48:29.421Z,5.3
2017-05-08T21:49:29.534Z,5.16
2017-05-08T21:50:29.515Z,5.09
2017-05-08T21:51:29.549Z,5.2
2017-05-08T21:52:29.555Z,5.13
2017-05-08T21:53:29.551Z,5.18
2017-05-08T21:54:29.594Z,5.03
2017-05-08T21:55:30.010Z,5.12
2017-05-08T21:56:29.646Z,5.05
2017-05-08T21:57:29.684Z,5.09
2017-05-08T21:58:29.734Z,5.2
2017-05-08T21:59:29.787Z,5.08
2017-05-08T22:00:29.791Z,4.97
2017-05-08T22:01:30.043Z,4.92
2017-05-08T22:02:29.870Z,4.95
2017-05-08T22:03:30.266Z,4.94
2017-05-08T22:04:29.938Z,4.9
2017-05-08T22:05:29.908Z,4.76
2017-05-08T22:06:29.928Z,4.79
2017-05-08T22:07:29.964Z,4.79
2017-05-08T22:08:29.980Z,4.83
2017-05-08T22:09:30.272Z,4.75
2017-05-08T22:10:30.094Z,4.75
2017-05-08T22:11:30.283Z,4.61
2017-05-08T22:12:30.094Z,4.68
2017-05-08T22:13:30.118Z,4.65
2017-05-08T22:14:30.197Z,4.6
2017-05-08T22:15:30.200Z,4.61
2017-05-08T22:16:30.216Z,4.56
2017-05-08T22:17:30.447Z,4.57
2017-05-08T22:18:30.465Z,4.58
2017-05-08T22:19:30.347Z,4.56
2017-05-08T22:20:30.387Z,4.47
2017-05-08T22:21:30.410Z,4.47
2017-05-08T22:22:30.543Z,4.38
2017-05-08T22:23:30.405Z,4.35
2017-05-08T22:24:30.488Z,4.26
2017-05-08T22:25:30.486Z,4.2
2017-05-08T22:26:30.500Z,4.2
2017-05-08T22:27:30.515Z,4.22
2017-05-08T22:28:30.573Z,4.22
2017-05-08T22:29:30.590Z,4.2
2017-05-08T22:30:30.596Z,4.14
2017-05-08T22:31:30.637Z,4.21
2017-05-08T22:32:30.657Z,4.04
2017-05-08T22:33:30.680Z,4.14
2017-05-08T22:34:30.743Z,4.04
2017-05-08T22:35:30.803Z,4.03
2017-05-08T22:36:30.780Z,4.04
2017-05-08T22:37:30.790Z,4.07
2017-05-08T22:38:30.833Z,3.97
2017-05-08T22:39:30.861Z,3.99
2017-05-08T22:40:30.893Z,3.92
2017-05-08T22:41:30.943Z,3.94
2017-05-08T22:42:30.957Z,3.92
2017-05-08T22:43:30.998Z,3.81
2017-05-08T22:44:30.994Z,3.86
2017-05-08T22:45:31.066Z,3.81
2017-05-08T22:46:31.053Z,3.69
2017-05-08T22:47:31.076Z,3.76
2017-05-08T22:48:31.128Z,3.67
2017-05-08T22:49:31.370Z,3.67
2017-05-08T22:50:31.169Z,3.6
2017-05-08T22:51:31.182Z,3.64
2017-05-08T22:52:31.246Z,3.56
2017-05-08T22:53:31.232Z,3.53
2017-05-08T22:54:31.330Z,3.56
2017-05-08T22:55:31.335Z,3.51
2017-05-08T22:56:31.335Z,3.48
2017-05-08T22:57:31.354Z,3.45
2017-05-08T22:58:31.387Z,3.45
2017-05-08T22:59:31.468Z,3.45
2017-05-08T23:00:31.445Z,3.39
2017-05-08T23:01:31.461Z,3.35
2017-05-08T23:02:31.745Z,3.4
2017-05-08T23:03:31.546Z,3.4
2017-05-08T23:04:31.540Z,3.34
2017-05-08T23:05:31.580Z,3.3
2017-05-08T23:06:31.638Z,3.32
2017-05-08T23:07:31.655Z,3.19
2017-05-08T23:08:31.695Z,3.23
2017-05-08T23:09:31.955Z,3.27
2017-05-08T23:10:31.746Z,3.24
2017-05-08T23:11:31.738Z,3.2
2017-05-08T23:12:31.802Z,3.21
2017-05-08T23:13:31.851Z,3.23
2017-05-08T23:14:31.850Z,3.24
2017-05-08T23:15:31.832Z,3.17
2017-05-08T23:16:31.906Z,3.11
2017-05-08T23:17:31.907Z,3.11
2017-05-08T23:18:31.970Z,3.13
2017-05-08T23:19:31.978Z,3.08
2017-05-08T23:20:32.200Z,3.02
2017-05-08T23:21:32.039Z,3.03
2017-05-08T23:22:32.053Z,2.98
2017-05-08T23:23:32.142Z,2.98
2017-05-08T23:24:32.151Z,3.01
2017-05-08T23:25:32.255Z,3.02
2017-05-08T23:26:32.151Z,3.02
2017-05-08T23:27:32.180Z,2.95
2017-05-08T23:28:32.205Z,2.98
2017-05-08T23:29:32.258Z,2.87
2017-05-08T23:30:32.294Z,2.88
2017-05-08T23:31:32.289Z,2.93
2017-05-08T23:32:32.369Z,2.9
2017-05-08T23:33:32.359Z,2.81
2017-05-08T23:34:33.477Z,2.85
2017-05-08T23:35:32.427Z,2.77
2017-05-08T23:36:32.439Z,2.73
2017-05-08T23:37:32.445Z,2.77
2017-05-08T23:38:32.511Z,2.7
2017-05-08T23:39:32.529Z,2.83
2017-05-08T23:40:32.560Z,2.77
2017-05-08T23:41:32.551Z,2.77
2017-05-08T23:42:32.582Z,2.83
2017-05-08T23:43:32.608Z,2.69
2017-05-08T23:44:32.676Z,2.73
2017-05-08T23:45:33.264Z,2.69
2017-05-08T23:46:32.689Z,2.7
2017-05-08T23:47:32.725Z,2.62
2017-05-08T23:48:32.814Z,2.69
2017-05-08T23:49:32.786Z,2.65
2017-05-08T23:50:32.828Z,2.54
2017-05-08T23:51:32.835Z,2.59
2017-05-08T23:52:32.928Z,2.63
2017-05-08T23:53:32.864Z,2.55
2017-05-08T23:54:32.910Z,2.55
2017-05-08T23:55:32.953Z,2.62
2017-05-08T23:56:32.960Z,2.6
2017-05-08T23:57:32.976Z,2.63
2017-05-08T23:58:33.023Z,2.73
2017-05-08T23:59:33.075Z,2.7
